createdAt,value
2018-11-05T00:00:17.792Z,17.43
2018-11-05T00:02:46.820Z,19.43
2018-11-05T00:05:15.690Z,18.47
2018-11-05T00:07:44.358Z,17.83
2018-11-05T00:10:13.041Z,18.73
2018-11-05T00:12:41.690Z,17.43
2018-11-05T00:15:10.446Z,17.83
2018-11-05T00:17:39.720Z,17.93
2018-11-05T00:20:09.619Z,18.17
2018-11-05T00:22:38.307Z,16.80
2018-11-05T00:25:08.514Z,18.27
2018-11-05T00:27:37.217Z,17.40
2018-11-05T00:30:06.389Z,17.93
2018-11-05T00:32:35.259Z,18.37
2018-11-05T00:35:03.907Z,17.83
2018-11-05T00:37:32.567Z,18.63
2018-11-05T00:40:01.148Z,18.47
2018-11-05T00:42:29.993Z,17.90
2018-11-05T00:44:58.705Z,17.53
2018-11-05T00:47:27.315Z,18.23
2018-11-05T00:49:55.974Z,17.93
2018-11-05T00:52:24.624Z,18.33
2018-11-05T00:54:53.327Z,18.77
2018-11-05T00:57:21.975Z,17.27
2018-11-05T00:59:50.659Z,17.97
2018-11-05T01:02:19.324Z,17.30
2018-11-05T01:04:48.019Z,17.10
2018-11-05T01:07:16.737Z,17.17
2018-11-05T01:09:45.391Z,18.50
2018-11-05T01:12:14.135Z,19.03
2018-11-05T01:14:42.719Z,19.07
2018-11-05T01:17:11.465Z,18.63
2018-11-05T01:19:40.062Z,19.20
2018-11-05T01:22:08.700Z,19.07
2018-11-05T01:24:37.354Z,19.17
2018-11-05T01:27:05.962Z,19.63
2018-11-05T01:29:34.653Z,19.40
2018-11-05T01:32:03.282Z,19.90
2018-11-05T01:34:31.967Z,19.07
2018-11-05T01:37:00.564Z,18.77
2018-11-05T01:39:29.222Z,18.77
2018-11-05T01:41:57.880Z,19.93
2018-11-05T01:44:26.520Z,18.63
2018-11-05T01:46:55.160Z,20.43
2018-11-05T01:49:23.858Z,20.23
2018-11-05T01:51:52.556Z,19.73
2018-11-05T01:54:21.142Z,20.03
2018-11-05T01:56:49.820Z,20.17
2018-11-05T01:59:18.503Z,19.77
2018-11-05T02:01:47.180Z,20.03
2018-11-05T02:04:15.822Z,20.67
2018-11-05T02:06:44.457Z,19.97
2018-11-05T02:09:13.187Z,19.80
2018-11-05T02:11:41.852Z,19.77
2018-11-05T02:14:11.057Z,20.63
2018-11-05T02:16:39.791Z,20.07
2018-11-05T02:19:08.389Z,21.10
2018-11-05T02:21:37.031Z,21.00
2018-11-05T02:24:05.783Z,19.33
2018-11-05T02:26:34.404Z,19.87
2018-11-05T02:29:03.130Z,20.50
2018-11-05T02:31:31.886Z,19.50
2018-11-05T02:34:00.529Z,19.53
2018-11-05T02:36:29.566Z,19.10
2018-11-05T02:38:58.280Z,20.83
2018-11-05T02:41:26.943Z,19.97
2018-11-05T02:43:55.669Z,19.97
2018-11-05T02:46:24.291Z,19.33
2018-11-05T02:48:52.936Z,18.63
2018-11-05T02:51:21.681Z,19.80
2018-11-05T02:53:50.403Z,18.83
2018-11-05T02:56:19.097Z,19.37
2018-11-05T02:58:47.716Z,18.53
2018-11-05T03:01:16.397Z,17.50
2018-11-05T03:03:45.111Z,18.93
2018-11-05T03:06:13.773Z,17.70
2018-11-05T03:08:42.399Z,17.30
2018-11-05T03:11:11.099Z,17.37
2018-11-05T03:13:39.796Z,17.10
2018-11-05T03:16:08.409Z,17.40
2018-11-05T03:18:37.012Z,17.60
2018-11-05T03:21:05.700Z,18.20
2018-11-05T03:23:34.380Z,17.37
2018-11-05T03:26:03.353Z,18.40
2018-11-05T03:28:31.983Z,17.80
2018-11-05T03:31:00.605Z,17.30
2018-11-05T03:33:29.273Z,18.10
2018-11-05T03:35:57.954Z,19.20
2018-11-05T03:38:26.557Z,18.20
2018-11-05T03:40:55.206Z,18.77
2018-11-05T03:43:23.935Z,18.73
2018-11-05T03:45:52.682Z,18.77
2018-11-05T03:48:21.299Z,18.00
2018-11-05T03:50:49.951Z,17.90
2018-11-05T03:53:18.577Z,18.00
2018-11-05T03:55:47.395Z,17.23
2018-11-05T03:58:15.944Z,18.33
2018-11-05T04:00:44.658Z,18.53
2018-11-05T04:03:13.290Z,17.97
2018-11-05T04:05:41.881Z,18.33
2018-11-05T04:08:10.474Z,18.93
2018-11-05T04:10:39.119Z,19.57
2018-11-05T04:13:07.784Z,18.43
2018-11-05T04:15:36.517Z,19.73
2018-11-05T04:18:05.087Z,17.80
2018-11-05T04:20:33.741Z,19.00
2018-11-05T04:23:02.379Z,18.37
2018-11-05T04:25:31.027Z,18.80
2018-11-05T04:27:59.756Z,18.23
2018-11-05T04:30:28.333Z,18.27
2018-11-05T04:32:57.014Z,17.43
2018-11-05T04:35:25.652Z,17.33
2018-11-05T04:37:54.532Z,18.67
2018-11-05T04:40:23.205Z,18.10
2018-11-05T04:42:51.897Z,18.40
2018-11-05T04:45:20.578Z,18.17
2018-11-05T04:47:49.185Z,18.17
2018-11-05T04:50:17.851Z,17.37
2018-11-05T04:52:46.555Z,18.70
2018-11-05T04:55:15.232Z,19.27
2018-11-05T04:57:43.852Z,17.53
2018-11-05T05:00:15.081Z,18.00
2018-11-05T05:02:44.028Z,18.00
2018-11-05T05:05:13.822Z,19.10
2018-11-05T05:07:42.565Z,18.77
2018-11-05T05:10:11.484Z,17.43
2018-11-05T05:12:41.350Z,17.23
2018-11-05T05:15:10.535Z,17.97
2018-11-05T05:17:39.593Z,18.40
2018-11-05T05:20:10.300Z,19.93
2018-11-05T05:22:39.090Z,18.67
2018-11-05T05:25:07.595Z,18.37
2018-11-05T05:27:36.254Z,18.37
2018-11-05T05:30:07.532Z,18.93
2018-11-05T05:32:36.213Z,16.97
2018-11-05T05:35:05.344Z,18.17
2018-11-05T05:37:34.029Z,18.33
2018-11-05T05:40:02.679Z,17.57
2018-11-05T05:42:31.271Z,18.13
2018-11-05T05:44:59.891Z,18.33
2018-11-05T05:47:28.569Z,18.33
2018-11-05T05:49:57.172Z,18.00
2018-11-05T05:52:25.885Z,18.87
2018-11-05T05:54:54.489Z,18.17
2018-11-05T05:57:23.167Z,19.10
2018-11-05T05:59:51.981Z,19.97
2018-11-05T06:02:20.624Z,19.97
2018-11-05T06:04:49.646Z,19.33
2018-11-05T06:07:18.232Z,19.80
2018-11-05T06:09:46.893Z,19.27
2018-11-05T06:12:15.520Z,18.77
2018-11-05T06:14:44.253Z,19.43
2018-11-05T06:17:12.908Z,20.57
2018-11-05T06:19:41.658Z,19.17
2018-11-05T06:22:10.331Z,19.40
2018-11-05T06:24:39.221Z,18.70
2018-11-05T06:27:07.883Z,20.13
2018-11-05T06:29:36.563Z,18.83
2018-11-05T06:32:05.446Z,19.33
2018-11-05T06:34:34.076Z,19.90
2018-11-05T06:37:02.747Z,20.20
2018-11-05T06:39:31.363Z,20.10
2018-11-05T06:42:00.066Z,19.67
2018-11-05T06:44:28.656Z,20.27
2018-11-05T06:46:57.427Z,20.17
2018-11-05T06:49:26.086Z,20.83
2018-11-05T06:51:54.644Z,20.87
2018-11-05T06:54:23.312Z,20.73
2018-11-05T06:56:52.026Z,20.57
2018-11-05T06:59:20.640Z,21.27
2018-11-05T07:01:49.336Z,19.53
2018-11-05T07:04:18.060Z,20.33
2018-11-05T07:06:46.748Z,19.90
2018-11-05T07:09:15.630Z,21.23
2018-11-05T07:11:44.271Z,20.40
2018-11-05T07:14:12.784Z,20.73
2018-11-05T07:16:41.521Z,20.87
2018-11-05T07:19:10.411Z,21.43
2018-11-05T07:21:38.707Z,21.27
2018-11-05T07:24:07.348Z,20.07
2018-11-05T07:26:36.009Z,21.97
2018-11-05T07:29:05.386Z,21.47
2018-11-05T07:31:34.001Z,21.60
2018-11-05T07:34:02.808Z,22.23
2018-11-05T07:36:31.329Z,22.50
2018-11-05T07:38:59.888Z,20.77
2018-11-05T07:41:28.504Z,22.10
2018-11-05T07:43:57.194Z,20.73
2018-11-05T07:46:25.772Z,21.00
2018-11-05T07:48:54.329Z,20.73
2018-11-05T07:51:22.983Z,21.03
2018-11-05T07:53:51.597Z,21.30
2018-11-05T07:56:20.364Z,19.90
2018-11-05T07:58:48.950Z,21.70
2018-11-05T08:01:17.542Z,20.53
2018-11-05T08:03:46.182Z,20.27
2018-11-05T08:06:14.842Z,20.93
2018-11-05T08:08:43.443Z,19.97
2018-11-05T08:11:12.107Z,19.40
2018-11-05T08:13:40.907Z,19.50
2018-11-05T08:16:09.538Z,20.17
2018-11-05T08:18:38.203Z,18.93
2018-11-05T08:21:06.980Z,20.27
2018-11-05T08:23:35.569Z,19.30
2018-11-05T08:26:04.276Z,20.20
2018-11-05T08:28:32.958Z,20.53
2018-11-05T08:31:01.646Z,20.27
2018-11-05T08:33:30.392Z,20.17
2018-11-05T08:35:59.127Z,21.00
2018-11-05T08:38:27.808Z,20.90
2018-11-05T08:40:56.694Z,19.87
2018-11-05T08:43:25.526Z,21.20
2018-11-05T08:45:54.229Z,20.67
2018-11-05T08:48:23.581Z,20.00
2018-11-05T08:50:52.335Z,20.07
2018-11-05T08:53:21.023Z,19.73
2018-11-05T08:55:49.771Z,19.93
2018-11-05T08:58:18.510Z,20.07
2018-11-05T09:00:48.713Z,20.43
2018-11-05T09:03:17.375Z,20.97
2018-11-05T09:05:46.189Z,19.33
2018-11-05T09:08:14.897Z,19.80
2018-11-05T09:10:43.920Z,20.60
2018-11-05T09:13:12.394Z,20.13
2018-11-05T09:15:41.560Z,19.17
2018-11-05T09:18:10.344Z,19.27
2018-11-05T09:20:39.159Z,19.00
2018-11-05T09:23:07.971Z,19.70
2018-11-05T09:25:37.348Z,19.33
2018-11-05T09:28:06.899Z,18.87
2018-11-05T09:30:35.957Z,17.77
2018-11-05T09:33:05.011Z,19.70
2018-11-05T09:35:36.497Z,19.40
2018-11-05T09:38:05.304Z,17.70
2018-11-05T09:40:34.045Z,18.80
2018-11-05T09:43:04.719Z,18.77
2018-11-05T09:45:33.443Z,19.23
2018-11-05T09:48:02.704Z,18.67
2018-11-05T09:50:31.408Z,20.10
2018-11-05T09:53:00.198Z,19.40
2018-11-05T09:55:29.022Z,18.50
2018-11-05T09:57:57.758Z,19.53
2018-11-05T10:00:27.614Z,19.67
2018-11-05T10:03:01.829Z,19.73
2018-11-05T10:05:30.370Z,18.50
2018-11-05T10:07:59.610Z,19.63
2018-11-05T10:10:28.599Z,19.50
2018-11-05T10:12:57.230Z,20.03
2018-11-05T10:15:25.938Z,20.37
2018-11-05T10:17:54.593Z,20.37
2018-11-05T10:20:24.419Z,20.00
2018-11-05T10:22:53.159Z,19.93
2018-11-05T10:25:22.027Z,20.07
2018-11-05T10:27:51.487Z,20.63
2018-11-05T10:30:21.694Z,19.83
2018-11-05T10:32:50.520Z,20.47
2018-11-05T10:35:19.578Z,19.70
2018-11-05T10:37:48.401Z,20.17
2018-11-05T10:40:18.874Z,20.33
2018-11-05T10:42:47.895Z,20.27
2018-11-05T10:45:17.666Z,19.47
2018-11-05T10:47:46.400Z,20.90
2018-11-05T10:50:16.425Z,20.87
2018-11-05T10:52:46.708Z,20.47
2018-11-05T10:55:15.430Z,19.93
2018-11-05T10:57:44.369Z,20.90
2018-11-05T11:00:19.618Z,19.00
2018-11-05T11:02:53.482Z,19.87
2018-11-05T11:05:22.998Z,19.83
2018-11-05T11:07:52.571Z,19.93
2018-11-05T11:10:21.234Z,19.43
2018-11-05T11:12:49.991Z,19.87
2018-11-05T11:15:18.853Z,20.47
2018-11-05T11:17:47.445Z,19.63
2018-11-05T11:20:16.987Z,21.00
2018-11-05T11:22:45.692Z,21.83
2018-11-05T11:25:14.428Z,21.83
2018-11-05T11:27:43.152Z,22.37
2018-11-05T11:30:13.941Z,23.30
2018-11-05T11:32:43.238Z,25.63
2018-11-05T11:35:12.482Z,25.50
2018-11-05T11:37:42.271Z,24.50
2018-11-05T11:40:13.916Z,24.17
2018-11-05T11:42:43.439Z,25.70
2018-11-05T11:45:12.963Z,25.63
2018-11-05T11:47:41.680Z,26.03
2018-11-05T11:50:12.138Z,26.10
2018-11-05T11:52:40.753Z,26.27
2018-11-05T11:55:11.397Z,25.83
2018-11-05T11:57:40.489Z,27.80
2018-11-05T12:00:15.565Z,26.33
2018-11-05T12:02:44.559Z,26.57
2018-11-05T12:05:13.471Z,26.83
2018-11-05T12:07:42.177Z,26.03
2018-11-05T12:10:14.931Z,25.60
2018-11-05T12:12:43.920Z,27.50
2018-11-05T12:15:13.435Z,26.53
2018-11-05T12:17:42.809Z,26.53
2018-11-05T12:20:20.978Z,26.10
2018-11-05T12:22:50.222Z,27.00
2018-11-05T12:25:19.008Z,26.30
2018-11-05T12:27:47.800Z,27.07
2018-11-05T12:30:21.359Z,26.50
2018-11-05T12:32:50.772Z,25.73
2018-11-05T12:35:21.469Z,26.73
2018-11-05T12:37:51.313Z,27.10
2018-11-05T12:40:20.908Z,26.63
2018-11-05T12:42:50.503Z,25.70
2018-11-05T12:45:19.181Z,27.30
2018-11-05T12:47:47.965Z,26.10
2018-11-05T12:50:22.908Z,26.97
2018-11-05T12:52:52.943Z,28.10
2018-11-05T12:55:22.164Z,28.27
2018-11-05T12:57:50.854Z,27.53
2018-11-05T13:00:22.234Z,27.50
2018-11-05T13:02:55.984Z,27.53
2018-11-05T13:05:25.587Z,27.63
2018-11-05T13:07:54.362Z,27.43
2018-11-05T13:10:23.918Z,28.70
2018-11-05T13:12:52.888Z,28.57
2018-11-05T13:15:21.608Z,28.00
2018-11-05T13:17:50.204Z,27.33
2018-11-05T13:20:20.083Z,27.90
2018-11-05T13:22:48.861Z,29.17
2018-11-05T13:25:17.405Z,29.53
2018-11-05T13:27:47.417Z,28.53
2018-11-05T13:30:16.574Z,27.77
2018-11-05T13:32:45.395Z,28.27
2018-11-05T13:35:16.085Z,29.03
2018-11-05T13:37:45.116Z,28.73
2018-11-05T13:40:22.189Z,29.50
2018-11-05T13:42:51.361Z,29.60
2018-11-05T13:45:20.539Z,28.73
2018-11-05T13:47:49.932Z,31.03
2018-11-05T13:50:18.399Z,30.50
2018-11-05T13:52:46.776Z,33.07
2018-11-05T13:55:16.497Z,32.50
2018-11-05T13:57:46.496Z,32.03
2018-11-05T14:00:16.416Z,32.23
2018-11-05T14:02:45.319Z,31.83
2018-11-05T14:05:14.541Z,33.13
2018-11-05T14:07:44.456Z,32.23
2018-11-05T14:10:15.727Z,32.73
2018-11-05T14:12:45.551Z,33.13
2018-11-05T14:15:14.142Z,32.27
2018-11-05T14:17:43.563Z,34.07
2018-11-05T14:20:13.129Z,32.73
2018-11-05T14:22:42.176Z,32.60
2018-11-05T14:25:14.809Z,32.93
2018-11-05T14:27:45.343Z,34.17
2018-11-05T14:30:14.484Z,32.50
2018-11-05T14:32:44.259Z,33.00
2018-11-05T14:35:13.736Z,33.57
2018-11-05T14:37:42.540Z,33.43
2018-11-05T14:40:12.980Z,34.37
2018-11-05T14:42:41.588Z,35.17
2018-11-05T14:45:12.232Z,36.63
2018-11-05T14:47:41.795Z,36.27
2018-11-05T14:50:12.564Z,35.90
2018-11-05T14:52:41.310Z,36.60
2018-11-05T14:55:12.769Z,36.20
2018-11-05T14:57:42.725Z,37.07
2018-11-05T15:00:21.098Z,34.23
2018-11-05T15:02:50.441Z,35.53
2018-11-05T15:05:19.100Z,34.73
2018-11-05T15:07:48.739Z,34.10
2018-11-05T15:10:18.745Z,32.20
2018-11-05T15:12:47.508Z,33.60
2018-11-05T15:15:16.946Z,32.13
2018-11-05T15:17:46.060Z,31.17
2018-11-05T15:20:16.876Z,32.80
2018-11-05T15:22:45.188Z,31.97
2018-11-05T15:25:14.454Z,31.93
2018-11-05T15:27:43.223Z,31.57
2018-11-05T15:30:15.087Z,31.67
2018-11-05T15:32:44.101Z,30.73
2018-11-05T15:35:12.915Z,33.20
2018-11-05T15:37:42.213Z,30.43
2018-11-05T15:40:12.836Z,30.57
2018-11-05T15:42:41.748Z,34.03
2018-11-05T15:45:12.175Z,29.80
2018-11-05T15:47:41.375Z,30.13
2018-11-05T15:50:12.219Z,27.90
2018-11-05T15:52:41.254Z,29.60
2018-11-05T15:55:10.005Z,29.53
2018-11-05T15:57:39.233Z,29.67
2018-11-05T16:00:16.588Z,29.23
2018-11-05T16:02:46.791Z,29.40
2018-11-05T16:05:15.521Z,29.67
2018-11-05T16:07:44.364Z,28.77
2018-11-05T16:10:13.470Z,29.20
2018-11-05T16:12:42.434Z,29.27
2018-11-05T16:15:11.919Z,29.77
2018-11-05T16:17:41.525Z,30.73
2018-11-05T16:20:13.144Z,29.90
2018-11-05T16:22:41.957Z,29.73
2018-11-05T16:25:10.885Z,30.93
2018-11-05T16:27:39.734Z,29.70
2018-11-05T16:30:10.256Z,30.53
2018-11-05T16:32:39.088Z,28.93
2018-11-05T16:35:07.948Z,28.43
2018-11-05T16:37:36.855Z,29.23
2018-11-05T16:40:07.555Z,28.53
2018-11-05T16:42:36.812Z,28.73
2018-11-05T16:45:07.155Z,29.23
2018-11-05T16:47:36.270Z,33.93
2018-11-05T16:50:08.841Z,32.13
2018-11-05T16:52:37.706Z,30.57
2018-11-05T16:55:07.817Z,45.03
2018-11-05T16:57:36.862Z,58.07
2018-11-05T17:00:06.175Z,28.47
2018-11-05T17:02:35.074Z,27.80
2018-11-05T17:05:03.627Z,26.73
2018-11-05T17:07:32.381Z,29.40
2018-11-05T17:10:01.250Z,28.37
2018-11-05T17:12:29.975Z,28.00
2018-11-05T17:14:58.731Z,28.37
2018-11-05T17:17:27.398Z,26.30
2018-11-05T17:19:56.103Z,28.57
2018-11-05T17:22:24.753Z,29.23
2018-11-05T17:24:53.581Z,27.87
2018-11-05T17:27:22.196Z,27.70
2018-11-05T17:29:50.824Z,28.23
2018-11-05T17:32:19.684Z,28.43
2018-11-05T17:34:48.353Z,27.60
2018-11-05T17:37:17.530Z,28.00
2018-11-05T17:39:46.124Z,27.10
2018-11-05T17:42:14.771Z,28.17
2018-11-05T17:44:43.393Z,27.27
2018-11-05T17:47:12.817Z,27.10
2018-11-05T17:49:41.480Z,26.93
2018-11-05T17:52:10.067Z,27.03
2018-11-05T17:54:38.905Z,27.73
2018-11-05T17:57:07.647Z,26.37
2018-11-05T17:59:36.338Z,26.00
2018-11-05T18:02:05.195Z,27.53
2018-11-05T18:04:33.937Z,26.03
2018-11-05T18:07:02.589Z,25.73
2018-11-05T18:09:31.278Z,26.67
2018-11-05T18:11:59.967Z,25.77
2018-11-05T18:14:28.668Z,26.23
2018-11-05T18:16:57.783Z,25.40
2018-11-05T18:19:26.404Z,26.00
2018-11-05T18:21:55.032Z,25.40
2018-11-05T18:24:23.813Z,24.87
2018-11-05T18:26:52.574Z,25.27
2018-11-05T18:29:21.261Z,25.27
2018-11-05T18:31:49.869Z,24.33
2018-11-05T18:34:18.869Z,24.33
2018-11-05T18:36:47.743Z,23.50
2018-11-05T18:39:16.354Z,24.27
2018-11-05T18:41:45.211Z,24.77
2018-11-05T18:44:14.096Z,24.13
2018-11-05T18:46:43.145Z,24.10
2018-11-05T18:49:11.727Z,23.50
2018-11-05T18:51:40.494Z,24.13
2018-11-05T18:54:09.159Z,23.57
2018-11-05T18:56:37.959Z,22.87
2018-11-05T18:59:07.025Z,23.40
2018-11-05T19:01:35.848Z,25.27
2018-11-05T19:04:04.694Z,24.73
2018-11-05T19:06:33.537Z,26.23
2018-11-05T19:09:02.457Z,23.70
2018-11-05T19:11:31.240Z,24.13
2018-11-05T19:14:00.122Z,23.00
2018-11-05T19:16:29.248Z,24.03
2018-11-05T19:19:01.388Z,22.63
2018-11-05T19:21:32.513Z,24.07
2018-11-05T19:24:04.467Z,23.67
2018-11-05T19:26:39.069Z,25.57
2018-11-05T19:29:10.105Z,24.80
2018-11-05T19:31:40.129Z,24.13
2018-11-05T19:34:11.172Z,22.53
2018-11-05T19:50:23.738Z,21.27
2018-11-05T19:52:56.956Z,22.77
2018-11-05T19:55:27.502Z,23.20
2018-11-05T19:58:01.157Z,22.03
2018-11-05T20:00:32.701Z,23.50
2018-11-05T20:03:02.629Z,22.73
2018-11-05T20:05:43.734Z,22.97
2018-11-05T20:08:15.685Z,22.57
2018-11-05T20:10:45.901Z,23.80
2018-11-05T20:13:16.297Z,21.40
2018-11-05T20:15:45.040Z,22.97
2018-11-05T20:18:18.217Z,22.37
2018-11-05T20:20:47.368Z,23.10
2018-11-05T20:23:18.560Z,22.77
2018-11-05T20:25:50.909Z,21.90
2018-11-05T20:28:21.859Z,21.90
2018-11-05T20:30:54.074Z,21.97
2018-11-05T20:33:24.100Z,22.00
2018-11-05T20:35:55.935Z,23.20
2018-11-05T20:38:25.876Z,23.60
2018-11-05T20:41:04.066Z,22.57
2018-11-05T20:43:36.257Z,22.40
2018-11-05T20:46:07.990Z,28.00
2018-11-05T20:48:36.805Z,24.40
2018-11-05T20:51:09.463Z,23.70
2018-11-05T20:53:38.304Z,24.70
2018-11-05T20:56:09.732Z,23.60
2018-11-05T20:58:41.597Z,23.13
2018-11-05T21:01:13.731Z,24.97
2018-11-05T21:03:45.241Z,24.77
2018-11-05T21:06:15.799Z,24.20
2018-11-05T21:08:47.702Z,24.73
2018-11-05T21:11:19.060Z,25.63
2018-11-05T21:13:48.858Z,24.83
2018-11-05T21:16:20.494Z,26.30
2018-11-05T21:18:52.183Z,24.83
2018-11-05T21:21:24.432Z,24.73
2018-11-05T21:23:53.217Z,23.73
2018-11-05T21:26:24.022Z,21.73
2018-11-05T21:28:54.331Z,24.50
2018-11-05T21:31:29.527Z,25.60
2018-11-05T21:36:35.609Z,25.67
2018-11-05T21:39:06.519Z,23.17
2018-11-05T21:41:39.369Z,22.83
2018-11-05T21:44:13.191Z,23.60
2018-11-05T21:46:43.409Z,24.03
2018-11-05T21:49:15.795Z,23.13
2018-11-05T21:51:44.613Z,23.80
2018-11-05T21:54:15.571Z,23.63
2018-11-05T21:56:46.888Z,23.37
2018-11-05T21:59:18.776Z,22.73
2018-11-05T22:01:48.270Z,23.70
2018-11-05T22:04:19.640Z,22.63
2018-11-05T22:06:51.071Z,23.50
2018-11-05T22:09:22.848Z,23.67
2018-11-05T22:11:53.790Z,23.37
2018-11-05T22:14:32.021Z,23.27
2018-11-05T22:17:02.903Z,23.90
2018-11-05T22:19:33.097Z,23.50
2018-11-05T22:22:02.467Z,23.47
2018-11-05T22:24:31.739Z,23.77
2018-11-05T22:27:02.472Z,23.27
2018-11-05T22:29:33.007Z,22.37
2018-11-05T22:32:02.810Z,23.33
2018-11-05T22:34:32.486Z,23.00
2018-11-05T22:37:02.143Z,22.57
2018-11-05T22:39:31.538Z,22.17
2018-11-05T22:42:01.432Z,23.03
2018-11-05T22:44:30.854Z,23.30
2018-11-05T22:47:02.620Z,23.60
2018-11-05T22:49:31.425Z,23.13
2018-11-05T22:52:01.482Z,23.03
2018-11-05T22:54:30.714Z,23.90
2018-11-05T22:56:59.803Z,23.20
2018-11-05T22:59:35.872Z,22.70
2018-11-05T23:02:06.536Z,22.63
2018-11-05T23:04:35.479Z,22.43
2018-11-05T23:07:04.832Z,22.57
2018-11-05T23:09:34.062Z,21.40
2018-11-05T23:12:03.509Z,22.43
2018-11-05T23:14:32.202Z,22.73
2018-11-05T23:17:02.268Z,22.53
2018-11-05T23:19:31.030Z,22.47
2018-11-05T23:21:59.776Z,22.53
2018-11-05T23:24:29.345Z,22.93
2018-11-05T23:26:58.779Z,22.77
2018-11-05T23:29:27.679Z,22.73
2018-11-05T23:31:56.418Z,22.80
2018-11-05T23:34:25.530Z,22.40
2018-11-05T23:36:54.906Z,22.70
2018-11-05T23:39:25.180Z,22.77
2018-11-05T23:41:55.165Z,22.83
2018-11-05T23:44:25.132Z,23.40
2018-11-05T23:46:55.204Z,22.50
2018-11-05T23:49:23.952Z,22.70
2018-11-05T23:51:52.859Z,22.97
2018-11-05T23:54:21.411Z,22.53
2018-11-05T23:56:50.102Z,22.17
2018-11-05T23:59:18.931Z,22.07
